Terminal Aerodrome Forecast
Issued by NWS

Home | Current Version | Previous Version | Text Only | Print | Product List | Glossary On
Versions: 1 2 3 4 5 6 7 8 9 10 11 12 13 14 15 16 17 18 19 20 21 22
000
FTUS43 KJKL 240300 AAB
TAFSJS
TAF AMD
KSJS 240340Z 2404/2424 24007KT 4SM BR VCTS SCT005 BKN035CB OVC050
      TEMPO 2404/2406 1/4SM TSRA FG BKN002 OVC010CB
     FM240600 VRB03KT 3SM BR VCSH BKN015 OVC020
     FM241500 34006KT P6SM SCT050=

USA.gov is the U.S. government's official web portal to all federal, state and local government web resources and services.